Main page
METAR-TAF:

METAR-TAF

Airports :

Angoulême, France

Angoulême – Cognac International Airport

latitude: 45-43-46N, longitude: 00-13-08E, elevation: 132 m

Current weather observation

The report was made 21 minutes ago, at 08:30 UTC
Wind 3 kt from the South, varying between Southeast and South/Southwest
Temperature 21°C
Humidity 69%
Pressure 1011 hPa
Visibility 10 km or more

METAR: LFBU 260830Z AUTO 17003KT 140V200 9999 ///TCU 21/15 Q1011 TEMPO 3000 RA BKN040

Time: 10:51 (08:51 UTC)


TAF: missing

Weather observations and forecasts of more than 4000 airports (METAR and TAF reports).

The available stations are represented by yellow and red dots on the map.

Hover mouse over dot to see the name of the station.

Then click to see weather observations and forecasts.

To change the map : click on the green buttons with a black cross to zoom in, on the green button with a dash to zoom out, or on the green arrows for adjacent maps.


METAR-TAF: